KDLS/DLS METAR and TAF weather

Enter ICAO airport designator
Station Type Date Time Source
KDLS METAR 2020/05/30 05:53 UTC NOAA

KDLS 300553Z AUTO 32013KT 10SM CLR 24/13 A2971 RMK AO2 SLP058 T02390128 10344 20239 53006


Station Type Date Time Source
KDLS Decoded METAR 2020/05/30 05:53 UTC NOAA

THE DALLES MUNICIPAL AIRPORT , OR, United States (KDLS) 45-37N 121-10W 71M
May 30, 2020 - 01:53 AM EDT / 2020.05.30 0553 UTC
Wind: from the NW (320 degrees) at 15 MPH (13 KT):0
Visibility: 10 mile(s):0
Sky conditions: clear
Temperature: 75.0 F (23.9 C)
Dew Point: 55.0 F (12.8 C)
Relative Humidity: 49%
Pressure (altimeter): 29.71 in. Hg (1006 hPa)
Pressure tendency: 0.02 inches (0.6 hPa) higher than three hours ago
ob: KDLS 300553Z AUTO 32013KT 10SM CLR 24/13 A2971 RMK AO2 SLP058 T02390128 10344 20239 53006
cycle: 6

Station Type Date Time Source
KDLS TAF 2020/05/30 06:24 UTC NOAA

TAF KDLS 300522Z 3006/3106 31008KT P6SM FEW150 BKN200
FM301300 32007KT P6SM VCSH SCT120 BKN150
FM301900 31020G30KT P6SM VCTS SCT080CB BKN100
FM310000 30020G30KT P6SM -SHRA OVC080

Example: see airport list